createdAt,value
2018-04-14T00:00:04.875Z,10.60
2018-04-14T00:01:04.713Z,10.60
2018-04-14T00:02:04.862Z,10.60
2018-04-14T00:03:05.420Z,10.60
2018-04-14T00:04:05.424Z,10.60
2018-04-14T00:05:04.869Z,10.60
2018-04-14T00:06:04.667Z,10.60
2018-04-14T00:07:05.453Z,10.60
2018-04-14T00:08:05.303Z,10.60
2018-04-14T00:09:04.703Z,10.60
2018-04-14T00:10:05.176Z,10.60
2018-04-14T00:11:05.316Z,10.60
2018-04-14T00:12:04.650Z,10.60
2018-04-14T00:13:05.625Z,10.60
2018-04-14T00:14:05.122Z,10.60
2018-04-14T00:15:04.910Z,10.60
2018-04-14T00:16:05.516Z,10.60
2018-04-14T00:17:04.866Z,10.60
2018-04-14T00:18:04.711Z,10.60
2018-04-14T00:19:04.912Z,10.60
2018-04-14T00:20:05.211Z,10.60
2018-04-14T00:21:04.889Z,10.60
2018-04-14T00:22:05.588Z,10.70
2018-04-14T00:23:05.313Z,10.60
2018-04-14T00:24:05.215Z,10.70
2018-04-14T00:25:04.900Z,10.70
2018-04-14T00:26:05.459Z,10.60
2018-04-14T00:27:05.390Z,10.70
2018-04-14T00:28:05.260Z,10.70
2018-04-14T00:29:05.381Z,10.70
2018-04-14T00:30:05.452Z,10.70
2018-04-14T00:31:05.387Z,10.70
2018-04-14T00:32:05.394Z,10.70
2018-04-14T00:33:05.239Z,10.70
2018-04-14T00:34:05.352Z,10.70
2018-04-14T00:35:04.799Z,10.70
2018-04-14T00:36:05.535Z,10.70
2018-04-14T00:37:05.612Z,10.70
2018-04-14T00:38:04.807Z,10.70
2018-04-14T00:39:05.041Z,10.70
2018-04-14T00:40:04.989Z,10.70
2018-04-14T00:41:04.836Z,10.70
2018-04-14T00:42:04.919Z,10.70
2018-04-14T00:43:04.998Z,10.70
2018-04-14T00:44:04.859Z,10.70
2018-04-14T00:45:05.682Z,10.70
2018-04-14T00:46:05.724Z,10.70
2018-04-14T00:47:05.536Z,10.70
2018-04-14T00:48:05.504Z,10.70
2018-04-14T00:49:05.201Z,10.70
2018-04-14T00:50:04.782Z,10.70
2018-04-14T00:51:05.604Z,10.70
2018-04-14T00:52:05.653Z,10.70
2018-04-14T00:53:05.369Z,10.60
2018-04-14T00:54:04.922Z,10.70
2018-04-14T00:55:04.947Z,10.60
2018-04-14T00:56:05.238Z,10.60
2018-04-14T00:57:05.013Z,10.60
2018-04-14T00:58:05.360Z,10.60
2018-04-14T00:59:04.992Z,10.60
2018-04-14T01:00:05.065Z,10.60
2018-04-14T01:01:04.991Z,10.60
2018-04-14T01:02:05.147Z,10.60
2018-04-14T01:03:05.265Z,10.60
2018-04-14T01:04:05.429Z,10.60
2018-04-14T01:05:05.777Z,10.60
2018-04-14T01:06:04.648Z,10.60
2018-04-14T01:07:05.348Z,10.60
2018-04-14T01:08:04.953Z,10.60
2018-04-14T01:09:05.536Z,10.60
2018-04-14T01:10:05.293Z,10.60
2018-04-14T01:11:05.118Z,10.60
2018-04-14T01:12:04.737Z,10.60
2018-04-14T01:13:05.018Z,10.60
2018-04-14T01:14:05.154Z,10.60
2018-04-14T01:15:04.895Z,10.60
2018-04-14T01:16:04.721Z,10.60
2018-04-14T01:17:05.285Z,10.60
2018-04-14T01:18:04.711Z,10.60
2018-04-14T01:19:05.499Z,10.50
2018-04-14T01:20:05.308Z,10.50
2018-04-14T01:21:04.747Z,10.50
2018-04-14T01:22:04.690Z,10.50
2018-04-14T01:23:05.535Z,10.50
2018-04-14T01:24:05.504Z,10.50
2018-04-14T01:25:04.682Z,10.50
2018-04-14T01:26:05.603Z,10.50
2018-04-14T01:27:04.772Z,10.50
2018-04-14T01:28:04.936Z,10.50
2018-04-14T01:29:05.173Z,10.50
2018-04-14T01:30:05.098Z,10.50
2018-04-14T01:31:05.182Z,10.50
2018-04-14T01:32:04.891Z,10.50
2018-04-14T01:33:05.455Z,10.50
2018-04-14T01:34:05.575Z,10.50
2018-04-14T01:35:05.640Z,10.50
2018-04-14T01:36:05.672Z,10.50
2018-04-14T01:37:05.135Z,10.50
2018-04-14T01:38:05.629Z,10.50
2018-04-14T01:39:05.637Z,10.50
2018-04-14T01:40:05.611Z,10.50
2018-04-14T01:41:05.523Z,10.50
2018-04-14T01:42:05.145Z,10.50
2018-04-14T01:43:04.979Z,10.50
2018-04-14T01:44:05.323Z,10.50
2018-04-14T01:45:04.973Z,10.50
2018-04-14T01:46:05.614Z,10.50
2018-04-14T01:47:05.119Z,10.50
2018-04-14T01:48:04.734Z,10.50
2018-04-14T01:49:04.782Z,10.50
2018-04-14T01:50:05.169Z,10.50
2018-04-14T01:51:04.764Z,10.50
2018-04-14T01:52:04.746Z,10.50
2018-04-14T01:53:04.917Z,10.50
2018-04-14T01:54:05.083Z,10.50
2018-04-14T01:55:04.961Z,10.50
2018-04-14T01:56:05.431Z,10.50
2018-04-14T01:57:05.047Z,10.50
2018-04-14T01:58:05.454Z,10.50
2018-04-14T01:59:05.066Z,10.50
2018-04-14T02:00:04.662Z,10.50
2018-04-14T02:01:04.848Z,10.50
2018-04-14T02:02:04.912Z,10.50
2018-04-14T02:03:05.688Z,10.50
2018-04-14T02:04:04.768Z,10.50
2018-04-14T02:05:05.481Z,10.50
2018-04-14T02:06:04.948Z,10.50
2018-04-14T02:07:05.049Z,10.50
2018-04-14T02:08:05.110Z,10.50
2018-04-14T02:09:04.793Z,10.50
2018-04-14T02:10:05.182Z,10.50
2018-04-14T02:11:04.758Z,10.50
2018-04-14T02:12:10.203Z,10.50
2018-04-14T02:13:05.153Z,10.50
2018-04-14T02:14:04.844Z,10.50
2018-04-14T02:15:05.209Z,10.50
2018-04-14T02:16:04.710Z,10.50
2018-04-14T02:17:05.223Z,10.50
2018-04-14T02:18:04.795Z,10.50
2018-04-14T02:19:05.446Z,10.50
2018-04-14T02:20:05.438Z,10.50
2018-04-14T02:21:05.407Z,10.50
2018-04-14T02:22:05.254Z,10.50
2018-04-14T02:23:04.911Z,10.50
2018-04-14T02:24:04.865Z,10.50
2018-04-14T02:25:04.925Z,10.50
2018-04-14T02:26:05.531Z,10.50
2018-04-14T02:27:05.434Z,10.50
2018-04-14T02:28:05.089Z,10.50
2018-04-14T02:29:05.006Z,10.50
2018-04-14T02:30:04.726Z,10.50
2018-04-14T02:31:05.649Z,10.50
2018-04-14T02:32:05.334Z,10.50
2018-04-14T02:33:04.934Z,10.50
2018-04-14T02:34:05.572Z,10.50
2018-04-14T02:35:05.657Z,10.50
2018-04-14T02:36:05.737Z,10.50
2018-04-14T02:37:04.897Z,10.50
2018-04-14T02:38:05.088Z,10.50
2018-04-14T02:39:05.652Z,10.50
2018-04-14T02:40:05.036Z,10.50
2018-04-14T02:41:05.556Z,10.50
2018-04-14T02:42:05.483Z,10.50
2018-04-14T02:43:05.765Z,10.50
2018-04-14T02:44:04.850Z,10.50
2018-04-14T02:45:05.699Z,10.50
2018-04-14T02:46:04.747Z,10.40
2018-04-14T02:47:05.668Z,10.50
2018-04-14T02:48:04.926Z,10.50
2018-04-14T02:49:04.708Z,10.50
2018-04-14T02:50:05.408Z,10.40
2018-04-14T02:51:04.964Z,10.40
2018-04-14T02:52:04.988Z,10.40
2018-04-14T02:53:05.626Z,10.40
2018-04-14T02:54:04.820Z,10.40
2018-04-14T02:55:05.170Z,10.40
2018-04-14T02:56:05.443Z,10.40
2018-04-14T02:57:05.335Z,10.40
2018-04-14T02:58:05.009Z,10.40
2018-04-14T02:59:04.939Z,10.40
2018-04-14T03:00:05.729Z,10.40
2018-04-14T03:01:05.145Z,10.40
2018-04-14T03:02:04.770Z,10.40
2018-04-14T03:03:05.562Z,10.40
2018-04-14T03:04:05.646Z,10.40
2018-04-14T03:05:05.355Z,10.40
2018-04-14T03:06:05.490Z,10.40
2018-04-14T03:07:05.054Z,10.40
2018-04-14T03:08:05.684Z,10.40
2018-04-14T03:09:05.160Z,10.40
2018-04-14T03:10:05.317Z,10.40
2018-04-14T03:11:05.390Z,10.40
2018-04-14T03:12:04.845Z,10.40
2018-04-14T03:13:05.473Z,10.40
2018-04-14T03:14:05.422Z,10.40
2018-04-14T03:15:05.590Z,10.40
2018-04-14T03:16:04.667Z,10.40
2018-04-14T03:17:05.338Z,10.40
2018-04-14T03:18:04.783Z,10.40
2018-04-14T03:19:05.379Z,10.40
2018-04-14T03:20:05.203Z,10.40
2018-04-14T03:21:05.137Z,10.40
2018-04-14T03:22:04.956Z,10.40
2018-04-14T03:23:04.979Z,10.40
2018-04-14T03:24:05.545Z,10.40
2018-04-14T03:25:04.779Z,10.40
2018-04-14T03:26:04.722Z,10.40
2018-04-14T03:27:04.735Z,10.40
2018-04-14T03:28:05.414Z,10.40
2018-04-14T03:29:05.230Z,10.40
2018-04-14T03:30:05.111Z,10.40
2018-04-14T03:31:04.766Z,10.40
2018-04-14T03:32:04.840Z,10.40
2018-04-14T03:33:04.811Z,10.40
2018-04-14T03:34:04.994Z,10.40
2018-04-14T03:35:05.163Z,10.40
2018-04-14T03:36:05.538Z,10.40
2018-04-14T03:37:04.687Z,10.40
2018-04-14T03:38:05.557Z,10.40
2018-04-14T03:39:04.701Z,10.40
2018-04-14T03:40:05.496Z,10.40
2018-04-14T03:41:04.921Z,10.40
2018-04-14T03:42:04.715Z,10.40
2018-04-14T03:43:05.411Z,10.40
2018-04-14T03:44:04.908Z,10.40
2018-04-14T03:45:04.853Z,10.40
2018-04-14T03:46:04.760Z,10.40
2018-04-14T03:47:04.823Z,10.40
2018-04-14T03:48:04.904Z,10.40
2018-04-14T03:49:05.422Z,10.40
2018-04-14T03:50:05.368Z,10.40
2018-04-14T03:51:04.957Z,10.40
2018-04-14T03:52:05.584Z,10.30
2018-04-14T03:53:05.062Z,10.30
2018-04-14T03:54:04.881Z,10.40
2018-04-14T03:55:04.952Z,10.30
2018-04-14T03:56:04.786Z,10.30
2018-04-14T03:57:05.353Z,10.30
2018-04-14T03:58:05.590Z,10.30
2018-04-14T03:59:05.401Z,10.30
2018-04-14T04:00:04.643Z,10.30
2018-04-14T04:01:05.365Z,10.30
2018-04-14T04:02:05.408Z,10.30
2018-04-14T04:03:05.394Z,10.30
2018-04-14T04:04:04.977Z,10.30
2018-04-14T04:05:05.282Z,10.30
2018-04-14T04:06:05.213Z,10.30
2018-04-14T04:07:05.039Z,10.30
2018-04-14T04:08:04.939Z,10.30
2018-04-14T04:09:05.426Z,10.30
2018-04-14T04:10:05.432Z,10.30
2018-04-14T04:11:05.309Z,10.30
2018-04-14T04:12:05.227Z,10.30
2018-04-14T04:13:05.302Z,10.30
2018-04-14T04:14:05.084Z,10.30
2018-04-14T04:15:05.266Z,10.20
2018-04-14T04:16:04.857Z,10.30
2018-04-14T04:17:05.033Z,10.20
2018-04-14T04:18:04.883Z,10.20
2018-04-14T04:19:05.472Z,10.20
2018-04-14T04:20:05.351Z,10.20
2018-04-14T04:21:04.960Z,10.20
2018-04-14T04:22:05.011Z,10.20
2018-04-14T04:23:04.689Z,10.10
2018-04-14T04:24:04.795Z,10.10
2018-04-14T04:25:05.564Z,10.10
2018-04-14T04:26:05.140Z,10.10
2018-04-14T04:27:05.456Z,10.10
2018-04-14T04:28:04.867Z,10.10
2018-04-14T04:29:04.827Z,10.10
2018-04-14T04:30:04.792Z,10.10
2018-04-14T04:31:05.178Z,10.00
2018-04-14T04:32:05.502Z,10.00
2018-04-14T04:33:05.287Z,10.00
2018-04-14T04:34:06.508Z,10.00
2018-04-14T04:35:04.951Z,10.00
2018-04-14T04:36:05.010Z,10.00
2018-04-14T04:37:06.546Z,10.00
2018-04-14T04:38:04.998Z,10.00
2018-04-14T04:39:04.970Z,10.00
2018-04-14T04:40:04.951Z,10.00
2018-04-14T04:41:04.999Z,10.00
2018-04-14T04:42:05.507Z,10.00
2018-04-14T04:43:05.416Z,10.00
2018-04-14T04:44:04.921Z,10.00
2018-04-14T04:45:04.689Z,10.00
2018-04-14T04:46:04.870Z,10.00
2018-04-14T04:47:05.202Z,10.00
2018-04-14T04:48:05.661Z,10.00
2018-04-14T04:49:05.640Z,10.00
2018-04-14T04:50:04.737Z,10.00
2018-04-14T04:51:05.433Z,10.00
2018-04-14T04:52:05.122Z,10.00
2018-04-14T04:53:05.060Z,10.00
2018-04-14T04:54:04.888Z,10.00
2018-04-14T04:55:05.372Z,10.00
2018-04-14T04:56:04.900Z,10.00
2018-04-14T04:57:04.797Z,10.00
2018-04-14T04:58:05.567Z,10.10
2018-04-14T04:59:05.053Z,10.10
2018-04-14T05:00:05.299Z,10.10
2018-04-14T05:01:05.505Z,10.10
2018-04-14T05:02:04.862Z,10.10
2018-04-14T05:03:05.099Z,10.10
2018-04-14T05:04:05.667Z,10.10
2018-04-14T05:05:05.422Z,10.10
2018-04-14T05:06:05.460Z,10.10
2018-04-14T05:07:05.022Z,10.10
2018-04-14T05:08:04.852Z,10.10
2018-04-14T05:09:05.462Z,10.10
2018-04-14T05:10:05.642Z,10.10
2018-04-14T05:11:05.045Z,10.10
2018-04-14T05:12:05.008Z,10.10
2018-04-14T05:13:05.246Z,10.10
2018-04-14T05:14:05.516Z,10.10
2018-04-14T05:15:05.598Z,10.10
2018-04-14T05:16:04.883Z,10.10
2018-04-14T05:17:05.038Z,10.10
2018-04-14T05:18:05.179Z,10.10
2018-04-14T05:19:05.029Z,10.20
2018-04-14T05:20:04.950Z,10.20
2018-04-14T05:21:04.807Z,10.30
2018-04-14T05:22:04.925Z,10.30
2018-04-14T05:23:05.222Z,10.30
2018-04-14T05:24:05.138Z,10.40
2018-04-14T05:25:04.824Z,10.40
2018-04-14T05:26:05.398Z,10.40
2018-04-14T05:27:05.053Z,10.50
2018-04-14T05:28:05.611Z,10.50
2018-04-14T05:29:04.731Z,10.50
2018-04-14T05:30:05.482Z,10.50
2018-04-14T05:31:05.379Z,10.50
2018-04-14T05:32:04.794Z,10.60
2018-04-14T05:33:05.471Z,10.60
2018-04-14T05:34:05.650Z,10.70
2018-04-14T05:35:04.822Z,10.80
2018-04-14T05:36:05.254Z,10.80
2018-04-14T05:37:05.590Z,10.90
2018-04-14T05:38:04.876Z,11.10
2018-04-14T05:39:06.055Z,11.20
2018-04-14T05:40:05.430Z,11.40
2018-04-14T05:41:05.357Z,11.50
2018-04-14T05:42:05.600Z,11.70
2018-04-14T05:43:05.426Z,11.80
2018-04-14T05:44:05.239Z,12.00
2018-04-14T05:45:05.589Z,12.20
2018-04-14T05:46:05.197Z,12.30
2018-04-14T05:47:05.087Z,12.50
2018-04-14T05:48:05.441Z,12.60
2018-04-14T05:49:05.051Z,12.80
2018-04-14T05:50:04.946Z,12.90
2018-04-14T05:51:04.958Z,13.10
2018-04-14T05:52:05.476Z,13.20
2018-04-14T05:53:05.690Z,13.40
2018-04-14T05:54:10.610Z,13.50
2018-04-14T05:55:05.124Z,13.50
2018-04-14T05:56:05.189Z,13.60
2018-04-14T05:57:05.428Z,13.70
2018-04-14T05:58:04.750Z,13.80
2018-04-14T05:59:05.335Z,13.90
2018-04-14T06:00:05.107Z,14.00
2018-04-14T06:01:14.861Z,14.10
2018-04-14T06:02:04.910Z,14.20
2018-04-14T06:03:04.958Z,14.30
2018-04-14T06:04:05.168Z,14.30
2018-04-14T06:05:05.169Z,14.40
2018-04-14T06:06:05.065Z,14.50
2018-04-14T06:07:04.896Z,14.60
2018-04-14T06:08:05.078Z,14.70
2018-04-14T06:09:04.902Z,14.80
2018-04-14T06:10:04.905Z,14.90
2018-04-14T06:11:04.730Z,15.00
2018-04-14T06:12:04.949Z,15.10
2018-04-14T06:13:05.368Z,15.20
2018-04-14T06:14:05.137Z,15.30
2018-04-14T06:15:05.320Z,15.40
2018-04-14T06:16:05.432Z,15.40
2018-04-14T06:17:05.100Z,15.50
2018-04-14T06:18:04.793Z,15.60
2018-04-14T06:19:05.767Z,15.60
2018-04-14T06:20:04.885Z,15.70
2018-04-14T06:21:04.868Z,15.70
2018-04-14T06:22:05.607Z,15.80
2018-04-14T06:23:04.876Z,15.80
2018-04-14T06:24:05.643Z,15.90
2018-04-14T06:25:05.173Z,16.00
2018-04-14T06:26:05.095Z,16.10
2018-04-14T06:27:05.331Z,16.10
2018-04-14T06:28:05.228Z,16.20
2018-04-14T06:29:04.884Z,16.20
2018-04-14T06:30:04.891Z,16.30
2018-04-14T06:31:04.903Z,16.30
2018-04-14T06:32:05.957Z,16.30
2018-04-14T06:33:05.354Z,16.30
2018-04-14T06:34:05.551Z,16.30
2018-04-14T06:35:05.189Z,16.30
2018-04-14T06:36:05.078Z,16.30
2018-04-14T06:37:05.239Z,16.30
2018-04-14T06:38:05.364Z,16.30
2018-04-14T06:39:04.671Z,16.30
2018-04-14T06:40:05.342Z,16.40
2018-04-14T06:41:05.087Z,16.40
2018-04-14T06:42:05.055Z,16.50
2018-04-14T06:43:05.047Z,16.50
2018-04-14T06:44:05.169Z,16.50
2018-04-14T06:45:05.455Z,16.60
2018-04-14T06:46:05.820Z,16.60
2018-04-14T06:47:05.580Z,16.60
2018-04-14T06:48:05.162Z,16.60
2018-04-14T06:49:05.039Z,16.70
2018-04-14T06:50:04.941Z,16.70
2018-04-14T06:51:04.782Z,16.80
2018-04-14T06:52:05.168Z,16.80
2018-04-14T06:53:05.672Z,16.80
2018-04-14T06:54:05.953Z,16.90
2018-04-14T06:55:05.105Z,16.90
2018-04-14T06:56:05.279Z,16.90
2018-04-14T06:57:05.213Z,17.00
2018-04-14T06:58:04.694Z,17.00
2018-04-14T06:59:05.259Z,17.00
2018-04-14T07:00:05.491Z,17.00
2018-04-14T07:01:04.851Z,17.10
2018-04-14T07:02:04.891Z,17.10
2018-04-14T07:03:04.827Z,17.20
2018-04-14T07:04:05.624Z,17.20
2018-04-14T07:05:05.329Z,17.30
2018-04-14T07:06:04.976Z,17.30
2018-04-14T07:07:04.966Z,17.30
2018-04-14T07:08:05.386Z,17.40
2018-04-14T07:09:04.949Z,17.40
2018-04-14T07:10:04.908Z,17.40
2018-04-14T07:11:05.466Z,17.40
2018-04-14T07:12:10.558Z,17.50
2018-04-14T07:13:05.515Z,17.50
2018-04-14T07:14:05.006Z,17.50
2018-04-14T07:15:05.368Z,17.50
2018-04-14T07:16:05.003Z,17.50
2018-04-14T07:17:04.995Z,17.60
2018-04-14T07:18:05.393Z,17.60
2018-04-14T07:19:05.648Z,17.70
2018-04-14T07:20:04.615Z,17.70
2018-04-14T07:21:05.829Z,17.70
2018-04-14T07:22:05.306Z,17.80
2018-04-14T07:23:05.280Z,17.80
2018-04-14T07:24:05.189Z,17.80
2018-04-14T07:25:04.973Z,17.80
2018-04-14T07:26:05.211Z,17.80
2018-04-14T07:27:05.183Z,17.80
2018-04-14T07:28:05.189Z,17.80
2018-04-14T07:29:04.812Z,17.80
2018-04-14T07:30:05.526Z,17.80
2018-04-14T07:31:05.006Z,17.90
2018-04-14T07:32:05.486Z,17.90
2018-04-14T07:33:04.650Z,17.90
2018-04-14T07:34:04.996Z,17.90
2018-04-14T07:35:04.971Z,17.90
2018-04-14T07:36:05.698Z,17.90
2018-04-14T07:37:05.603Z,17.90
2018-04-14T07:38:05.107Z,17.90
2018-04-14T07:39:05.462Z,17.90
2018-04-14T07:40:05.441Z,17.90
2018-04-14T07:41:05.114Z,17.90
2018-04-14T07:42:05.062Z,17.90
2018-04-14T07:43:04.800Z,18.00
2018-04-14T07:44:10.458Z,17.90
2018-04-14T07:45:05.470Z,17.90
2018-04-14T07:46:05.413Z,18.00
2018-04-14T07:47:05.512Z,18.00
2018-04-14T07:48:05.294Z,18.00
2018-04-14T07:49:06.371Z,18.00
2018-04-14T07:50:06.473Z,18.00
2018-04-14T07:51:05.532Z,18.00
2018-04-14T07:52:05.620Z,18.00
2018-04-14T07:53:05.851Z,18.00
2018-04-14T07:54:05.124Z,18.00
2018-04-14T07:55:05.685Z,18.00
2018-04-14T07:56:05.206Z,18.00
2018-04-14T07:57:05.039Z,18.00
2018-04-14T07:58:05.290Z,18.00
2018-04-14T07:59:05.536Z,18.00
2018-04-14T08:00:04.854Z,18.00
2018-04-14T08:01:05.020Z,18.00
2018-04-14T08:02:05.197Z,18.00
2018-04-14T08:03:04.748Z,18.00
2018-04-14T08:04:05.206Z,18.00
2018-04-14T08:05:05.214Z,18.10
2018-04-14T08:06:05.437Z,18.10
2018-04-14T08:07:04.920Z,18.10
2018-04-14T08:08:06.719Z,18.10
2018-04-14T08:09:05.606Z,18.20
2018-04-14T08:10:05.220Z,18.20
2018-04-14T08:11:04.946Z,18.20
2018-04-14T08:12:05.656Z,18.20
2018-04-14T08:13:05.658Z,18.30
2018-04-14T08:14:05.486Z,18.20
2018-04-14T08:15:04.903Z,18.20
2018-04-14T08:16:05.188Z,18.20
2018-04-14T08:17:05.374Z,18.20
2018-04-14T08:18:04.989Z,18.20
2018-04-14T08:19:04.794Z,18.30
2018-04-14T08:20:04.900Z,18.30
2018-04-14T08:21:05.187Z,18.30
2018-04-14T08:22:04.918Z,18.30
2018-04-14T08:23:05.611Z,18.30
2018-04-14T08:24:05.370Z,18.30
2018-04-14T08:25:05.551Z,18.30
2018-04-14T08:26:05.689Z,18.30
2018-04-14T08:27:05.601Z,18.30
2018-04-14T08:28:05.353Z,18.40
2018-04-14T08:29:05.518Z,18.40
2018-04-14T08:30:05.676Z,18.40
2018-04-14T08:31:05.029Z,18.40
2018-04-14T08:32:05.353Z,18.40
2018-04-14T08:33:05.263Z,18.40
2018-04-14T08:34:04.957Z,18.40
2018-04-14T08:35:05.498Z,18.50
2018-04-14T08:36:05.135Z,18.50
2018-04-14T08:37:05.333Z,18.50
2018-04-14T08:38:05.482Z,18.50
2018-04-14T08:39:05.465Z,18.50
2018-04-14T08:40:06.089Z,18.50
2018-04-14T08:41:05.143Z,18.50
2018-04-14T08:42:05.631Z,18.50
2018-04-14T08:43:05.255Z,18.50
2018-04-14T08:44:04.934Z,18.50
2018-04-14T08:45:05.559Z,18.50
2018-04-14T08:46:04.713Z,18.50
2018-04-14T08:47:04.817Z,18.50
2018-04-14T08:48:05.036Z,18.50
2018-04-14T08:49:05.285Z,18.60
2018-04-14T08:50:06.559Z,18.60
2018-04-14T08:51:05.574Z,18.60
2018-04-14T08:52:05.395Z,18.60
2018-04-14T08:53:10.125Z,18.60
2018-04-14T08:54:05.403Z,18.70
2018-04-14T08:55:06.531Z,18.70
2018-04-14T08:56:05.070Z,18.70
2018-04-14T08:57:05.278Z,18.70
2018-04-14T08:58:05.356Z,18.70
2018-04-14T08:59:05.155Z,18.60
2018-04-14T09:00:05.161Z,18.60
2018-04-14T09:01:05.117Z,18.60
2018-04-14T09:02:04.811Z,18.60
2018-04-14T09:03:04.812Z,18.50
2018-04-14T09:04:05.030Z,18.50
2018-04-14T09:05:05.442Z,18.50
2018-04-14T09:06:05.473Z,18.40
2018-04-14T09:07:04.680Z,18.40
2018-04-14T09:08:05.718Z,18.40
2018-04-14T09:09:05.557Z,18.40
2018-04-14T09:10:10.093Z,18.30
2018-04-14T09:11:05.147Z,18.30
2018-04-14T09:12:04.912Z,18.30
2018-04-14T09:13:05.622Z,18.30
2018-04-14T09:14:04.781Z,18.30
2018-04-14T09:15:05.549Z,18.30
2018-04-14T09:16:05.495Z,18.40
2018-04-14T09:17:05.464Z,18.40
2018-04-14T09:18:05.400Z,18.40
2018-04-14T09:19:05.454Z,18.40
2018-04-14T09:20:05.343Z,18.40
2018-04-14T09:21:05.108Z,18.40
2018-04-14T09:22:05.213Z,18.50
2018-04-14T09:23:04.752Z,18.50
2018-04-14T09:24:05.594Z,18.50
2018-04-14T09:25:04.894Z,18.50
2018-04-14T09:26:05.507Z,18.60
2018-04-14T09:27:05.209Z,18.60
2018-04-14T09:28:05.222Z,18.60
2018-04-14T09:29:05.053Z,18.60
2018-04-14T09:30:05.523Z,18.50
2018-04-14T09:31:05.432Z,18.50
2018-04-14T09:32:04.852Z,18.40
2018-04-14T09:33:05.453Z,18.40
2018-04-14T09:34:05.167Z,18.30
2018-04-14T09:35:04.926Z,18.30
2018-04-14T09:36:05.639Z,18.20
2018-04-14T09:37:05.215Z,18.20
2018-04-14T09:38:05.460Z,18.20
2018-04-14T09:39:05.243Z,18.20
2018-04-14T09:40:05.207Z,18.10
2018-04-14T09:41:05.188Z,18.00
2018-04-14T09:42:05.195Z,18.00
2018-04-14T09:43:05.249Z,18.00
2018-04-14T09:44:05.391Z,17.90
2018-04-14T09:45:04.622Z,17.80
2018-04-14T09:46:05.528Z,17.80
2018-04-14T09:47:05.561Z,17.70
2018-04-14T09:48:05.571Z,17.70
2018-04-14T09:49:05.090Z,17.70
2018-04-14T09:50:05.087Z,17.60
2018-04-14T09:51:05.578Z,17.60
2018-04-14T09:52:05.137Z,17.60
2018-04-14T09:53:05.304Z,17.60
2018-04-14T09:54:05.313Z,17.60
2018-04-14T09:55:05.013Z,17.60
2018-04-14T09:56:05.369Z,17.60
2018-04-14T09:57:05.524Z,17.60
2018-04-14T09:58:05.225Z,17.70
2018-04-14T09:59:05.436Z,17.70
2018-04-14T10:00:05.353Z,17.70
2018-04-14T10:01:04.972Z,17.80
2018-04-14T10:02:05.285Z,17.80
2018-04-14T10:03:04.883Z,17.90
2018-04-14T10:04:04.946Z,17.90
2018-04-14T10:05:05.749Z,18.00
2018-04-14T10:06:04.788Z,18.00
2018-04-14T10:07:05.695Z,18.10
2018-04-14T10:08:04.852Z,18.20
2018-04-14T10:09:05.074Z,18.20
2018-04-14T10:10:05.440Z,18.30
2018-04-14T10:11:04.893Z,18.40
2018-04-14T10:12:08.862Z,18.40
2018-04-14T10:13:04.872Z,18.50
2018-04-14T10:14:05.517Z,18.50
2018-04-14T10:15:05.214Z,18.50
2018-04-14T10:16:05.579Z,18.50
2018-04-14T10:17:04.827Z,18.50
2018-04-14T10:18:05.466Z,18.60
2018-04-14T10:19:05.407Z,18.60
2018-04-14T10:20:05.460Z,18.60
2018-04-14T10:21:05.561Z,18.70
2018-04-14T10:22:04.942Z,18.70
2018-04-14T10:23:05.668Z,18.80
2018-04-14T10:24:05.120Z,18.80
2018-04-14T10:25:05.262Z,18.80
2018-04-14T10:26:05.645Z,18.90
2018-04-14T10:27:05.671Z,18.90
2018-04-14T10:28:05.249Z,18.90
2018-04-14T10:29:05.217Z,18.90
2018-04-14T10:30:05.220Z,18.90
2018-04-14T10:31:04.844Z,18.90
2018-04-14T10:32:05.514Z,18.90
2018-04-14T10:33:05.496Z,18.90
2018-04-14T10:34:04.855Z,18.90
2018-04-14T10:35:04.860Z,18.90
2018-04-14T10:36:04.849Z,18.90
2018-04-14T10:37:05.725Z,18.90
2018-04-14T10:38:05.290Z,18.90
2018-04-14T10:39:05.537Z,18.90
2018-04-14T10:40:10.264Z,18.90
2018-04-14T10:41:05.067Z,18.90
2018-04-14T10:42:05.483Z,19.00
2018-04-14T10:43:04.847Z,19.00
2018-04-14T10:44:05.514Z,19.00
2018-04-14T10:45:05.548Z,19.10
2018-04-14T10:46:05.264Z,19.10
2018-04-14T10:47:05.819Z,19.20
2018-04-14T10:48:05.479Z,19.20
2018-04-14T10:49:04.775Z,19.20
2018-04-14T10:50:05.208Z,19.30
2018-04-14T10:51:04.772Z,19.30
2018-04-14T10:52:05.073Z,19.30
2018-04-14T10:53:04.673Z,19.40
2018-04-14T10:54:05.626Z,19.40
2018-04-14T10:55:05.066Z,19.40
2018-04-14T10:56:05.342Z,19.40
2018-04-14T10:57:05.493Z,19.50
2018-04-14T10:58:05.079Z,19.50
2018-04-14T10:59:05.447Z,19.50
2018-04-14T11:00:05.468Z,19.50
2018-04-14T11:01:04.987Z,19.60
2018-04-14T11:02:05.184Z,19.60
2018-04-14T11:03:05.276Z,19.60
2018-04-14T11:04:05.401Z,19.60
2018-04-14T11:05:05.471Z,19.50
2018-04-14T11:06:05.443Z,19.50
2018-04-14T11:07:05.181Z,19.50
2018-04-14T11:08:05.123Z,19.60
2018-04-14T11:09:04.964Z,19.60
2018-04-14T11:10:05.079Z,19.60
2018-04-14T11:11:05.737Z,19.60
2018-04-14T11:12:04.814Z,19.60
2018-04-14T11:13:04.887Z,19.70
2018-04-14T11:14:05.516Z,19.60
2018-04-14T11:15:05.025Z,19.60
2018-04-14T11:16:05.038Z,19.60
2018-04-14T11:17:05.105Z,19.60
2018-04-14T11:18:04.931Z,19.60
2018-04-14T11:19:05.575Z,19.60
2018-04-14T11:20:05.685Z,19.60
2018-04-14T11:21:05.341Z,19.60
2018-04-14T11:22:04.977Z,19.60
2018-04-14T11:23:04.908Z,19.60
2018-04-14T11:24:05.068Z,19.60
2018-04-14T11:25:05.580Z,19.60
2018-04-14T11:26:04.826Z,19.70
2018-04-14T11:27:04.676Z,19.70
2018-04-14T11:28:04.910Z,19.70
2018-04-14T11:29:05.258Z,19.70
2018-04-14T11:30:05.718Z,19.70
2018-04-14T11:31:05.625Z,19.70
2018-04-14T11:32:05.586Z,19.70
2018-04-14T11:33:05.213Z,19.70
2018-04-14T11:34:04.917Z,19.60
2018-04-14T11:35:05.347Z,19.60
2018-04-14T11:36:05.115Z,19.60
2018-04-14T11:37:04.882Z,19.50
2018-04-14T11:38:04.625Z,19.50
2018-04-14T11:39:05.627Z,19.50
2018-04-14T11:40:05.585Z,19.50
2018-04-14T11:41:05.551Z,19.40
2018-04-14T11:42:05.324Z,19.40
2018-04-14T11:43:05.103Z,19.40
2018-04-14T11:44:04.904Z,19.40
2018-04-14T11:45:05.691Z,19.40
2018-04-14T11:46:05.186Z,19.40
2018-04-14T11:47:05.495Z,19.50
2018-04-14T11:48:05.290Z,19.50
2018-04-14T11:49:04.901Z,19.60
2018-04-14T11:50:04.927Z,19.60
2018-04-14T11:51:05.390Z,19.60
2018-04-14T11:52:06.182Z,19.60
2018-04-14T11:53:05.570Z,19.60
2018-04-14T11:54:05.342Z,19.60
2018-04-14T11:55:04.728Z,19.50
2018-04-14T11:56:05.511Z,19.50
2018-04-14T11:57:04.785Z,19.60
2018-04-14T11:58:05.166Z,19.60
2018-04-14T11:59:05.611Z,19.60
2018-04-14T12:00:05.346Z,19.60
2018-04-14T12:01:04.934Z,19.60
2018-04-14T12:02:04.767Z,19.70
2018-04-14T12:03:05.174Z,19.70
2018-04-14T12:04:05.423Z,19.70
2018-04-14T12:05:05.425Z,19.70
2018-04-14T12:06:05.173Z,19.70
2018-04-14T12:07:05.379Z,19.70
2018-04-14T12:08:04.914Z,19.70
2018-04-14T12:09:05.563Z,19.70
2018-04-14T12:10:05.191Z,19.70
2018-04-14T12:11:05.110Z,19.70
2018-04-14T12:12:04.859Z,19.80
2018-04-14T12:13:04.826Z,19.80
2018-04-14T12:14:04.920Z,19.90
2018-04-14T12:15:05.248Z,19.90
2018-04-14T12:16:05.064Z,19.90
2018-04-14T12:17:04.962Z,20.00
2018-04-14T12:18:05.000Z,20.00
2018-04-14T12:19:04.942Z,20.00
2018-04-14T12:20:05.522Z,20.00
2018-04-14T12:21:05.623Z,20.00
2018-04-14T12:22:05.226Z,19.90
2018-04-14T12:23:05.035Z,19.90
2018-04-14T12:24:05.437Z,19.80
2018-04-14T12:25:05.434Z,19.70
2018-04-14T12:26:04.854Z,19.70
2018-04-14T12:27:04.961Z,19.60
2018-04-14T12:28:04.903Z,19.60
2018-04-14T12:29:05.347Z,19.60
2018-04-14T12:30:05.509Z,19.50
2018-04-14T12:31:05.169Z,19.50
2018-04-14T12:32:05.543Z,19.50
2018-04-14T12:33:05.415Z,19.60
2018-04-14T12:34:05.419Z,19.60
2018-04-14T12:35:05.222Z,19.60
2018-04-14T12:36:05.100Z,19.70
2018-04-14T12:37:05.569Z,19.60
2018-04-14T12:38:05.200Z,19.60
2018-04-14T12:39:04.844Z,19.60
2018-04-14T12:40:04.954Z,19.60
2018-04-14T12:41:04.954Z,19.60
2018-04-14T12:42:04.868Z,19.60
2018-04-14T12:43:05.040Z,19.60
2018-04-14T12:44:05.708Z,19.60
2018-04-14T12:45:05.447Z,19.60
2018-04-14T12:46:05.562Z,19.50
2018-04-14T12:47:05.379Z,19.60
2018-04-14T12:48:05.179Z,19.60
2018-04-14T12:49:04.837Z,19.60
2018-04-14T12:50:05.047Z,19.60
2018-04-14T12:51:05.074Z,19.60
2018-04-14T12:52:05.743Z,19.70